createdAt,value
2018-06-17T00:01:04.507Z,0.00
2018-06-17T00:02:08.960Z,0.00
2018-06-17T00:03:14.490Z,0.00
2018-06-17T00:04:19.989Z,0.00
2018-06-17T00:05:25.516Z,0.00
2018-06-17T00:06:31.013Z,0.00
2018-06-17T00:07:37.552Z,0.00
2018-06-17T00:08:42.065Z,0.00
2018-06-17T00:09:47.704Z,0.00
2018-06-17T00:10:53.088Z,0.00
2018-06-17T00:11:58.615Z,0.00
2018-06-17T00:13:04.125Z,0.00
2018-06-17T00:14:10.664Z,0.00
2018-06-17T00:15:15.195Z,0.00
2018-06-17T00:16:20.696Z,0.00
2018-06-17T00:17:26.184Z,0.00
2018-06-17T00:18:31.703Z,0.00
2018-06-17T00:19:37.219Z,0.00
2018-06-17T00:20:43.741Z,0.00
2018-06-17T00:21:48.249Z,0.00
2018-06-17T00:22:53.764Z,0.00
2018-06-17T00:23:59.297Z,0.00
2018-06-17T00:25:04.820Z,0.00
2018-06-17T00:26:10.316Z,0.00
2018-06-17T00:27:16.847Z,0.00
2018-06-17T00:28:21.360Z,0.00
2018-06-17T00:29:26.865Z,0.00
2018-06-17T00:30:32.404Z,0.00
2018-06-17T00:31:37.896Z,0.00
2018-06-17T00:32:43.422Z,0.00
2018-06-17T00:33:49.953Z,0.00
2018-06-17T00:34:54.440Z,0.00
2018-06-17T00:35:59.978Z,0.00
2018-06-17T00:37:05.489Z,0.00
2018-06-17T00:38:10.979Z,0.00
2018-06-17T00:39:16.512Z,0.00
2018-06-17T00:40:23.040Z,0.00
2018-06-17T00:41:27.536Z,0.00
2018-06-17T00:42:33.059Z,0.00
2018-06-17T00:43:38.589Z,0.00
2018-06-17T00:44:44.114Z,0.00
2018-06-17T00:45:49.615Z,0.00
2018-06-17T00:46:56.127Z,0.00
2018-06-17T00:48:00.631Z,0.00
2018-06-17T00:49:06.139Z,0.00
2018-06-17T00:50:11.699Z,0.00
2018-06-17T00:51:17.181Z,0.00
2018-06-17T00:52:22.696Z,0.00
2018-06-17T00:53:29.218Z,0.00
2018-06-17T00:54:33.725Z,0.00
2018-06-17T00:55:39.246Z,0.00
2018-06-17T00:56:44.750Z,0.00
2018-06-17T00:57:50.283Z,0.00
2018-06-17T00:58:55.790Z,0.00
2018-06-17T01:00:02.335Z,0.00
2018-06-17T01:01:06.837Z,0.00
2018-06-17T01:02:12.340Z,0.00
2018-06-17T01:03:17.852Z,0.00
2018-06-17T01:04:23.389Z,0.00
2018-06-17T01:05:28.890Z,0.00
2018-06-17T01:06:35.406Z,0.00
2018-06-17T01:07:39.919Z,0.00
2018-06-17T01:08:45.435Z,0.00
2018-06-17T01:09:50.948Z,0.00
2018-06-17T01:10:56.465Z,0.00
2018-06-17T01:12:01.988Z,0.00
2018-06-17T01:13:08.505Z,0.00
2018-06-17T01:14:13.001Z,0.00
2018-06-17T01:15:18.526Z,0.00
2018-06-17T01:16:24.057Z,0.00
2018-06-17T01:17:29.558Z,0.00
2018-06-17T01:18:35.068Z,0.00
2018-06-17T01:19:41.596Z,0.00
2018-06-17T01:20:46.094Z,0.00
2018-06-17T01:21:51.637Z,0.00
2018-06-17T01:22:57.148Z,0.00
2018-06-17T01:24:02.669Z,0.00
2018-06-17T01:25:08.180Z,0.00
2018-06-17T01:26:14.721Z,0.00
2018-06-17T01:27:19.214Z,0.00
2018-06-17T01:28:24.710Z,0.00
2018-06-17T01:29:30.245Z,0.00
2018-06-17T01:30:35.755Z,0.00
2018-06-17T01:31:41.259Z,0.00
2018-06-17T01:32:47.791Z,0.00
2018-06-17T01:33:52.305Z,0.00
2018-06-17T01:34:57.802Z,0.00
2018-06-17T01:36:03.321Z,0.00
2018-06-17T01:37:08.845Z,0.00
2018-06-17T01:38:14.350Z,0.00
2018-06-17T01:39:20.901Z,0.00
2018-06-17T01:40:25.387Z,0.00
2018-06-17T01:41:30.945Z,0.00
2018-06-17T01:42:36.418Z,0.00
2018-06-17T01:43:41.937Z,0.00
2018-06-17T01:44:47.466Z,0.00
2018-06-17T01:45:53.975Z,0.00
2018-06-17T01:46:58.472Z,0.00
2018-06-17T01:48:03.991Z,0.00
2018-06-17T01:49:09.505Z,0.00
2018-06-17T01:50:15.043Z,0.00
2018-06-17T01:51:20.543Z,0.00
2018-06-17T01:52:27.057Z,0.00
2018-06-17T01:53:31.558Z,0.00
2018-06-17T01:54:37.075Z,0.00
2018-06-17T01:55:42.594Z,0.00
2018-06-17T01:56:48.130Z,0.00
2018-06-17T01:57:53.632Z,0.00
2018-06-17T01:59:00.162Z,0.00
2018-06-17T02:00:04.666Z,0.00
2018-06-17T02:01:10.167Z,0.00
2018-06-17T02:02:15.687Z,0.00
2018-06-17T02:03:21.201Z,0.00
2018-06-17T02:04:26.723Z,0.00
2018-06-17T02:05:33.258Z,0.00
2018-06-17T02:06:37.752Z,0.00
2018-06-17T02:07:43.303Z,0.00
2018-06-17T02:08:48.790Z,0.00
2018-06-17T02:09:54.297Z,0.00
2018-06-17T02:10:59.824Z,0.00
2018-06-17T02:12:06.333Z,0.00
2018-06-17T02:13:10.847Z,0.00
2018-06-17T02:14:16.347Z,0.00
2018-06-17T02:15:21.873Z,0.00
2018-06-17T02:16:27.402Z,0.00
2018-06-17T02:17:32.903Z,0.00
2018-06-17T02:18:39.421Z,0.00
2018-06-17T02:19:43.942Z,0.00
2018-06-17T02:20:49.437Z,0.00
2018-06-17T02:21:54.959Z,0.00
2018-06-17T02:23:02.922Z,0.00
2018-06-17T02:24:05.998Z,0.00
2018-06-17T02:25:12.532Z,0.00
2018-06-17T02:26:17.018Z,0.00
2018-06-17T02:27:22.534Z,0.00
2018-06-17T02:28:28.903Z,0.00
2018-06-17T02:29:33.570Z,0.00
2018-06-17T02:30:39.104Z,0.00
2018-06-17T02:31:45.634Z,0.00
2018-06-17T02:32:50.108Z,0.00
2018-06-17T02:33:55.622Z,0.00
2018-06-17T02:35:01.150Z,0.00
2018-06-17T02:36:06.651Z,0.00
2018-06-17T02:37:12.178Z,0.00
2018-06-17T02:38:18.696Z,0.00
2018-06-17T02:39:23.205Z,0.00
2018-06-17T02:40:28.729Z,0.00
2018-06-17T02:41:34.236Z,0.00
2018-06-17T02:42:39.741Z,0.00
2018-06-17T02:43:45.265Z,0.00
2018-06-17T02:44:51.793Z,0.00
2018-06-17T02:45:56.295Z,0.00
2018-06-17T02:47:01.806Z,0.00
2018-06-17T02:48:07.327Z,0.00
2018-06-17T02:49:12.833Z,0.00
2018-06-17T02:50:18.343Z,0.00
2018-06-17T02:51:24.882Z,0.00
2018-06-17T02:52:29.379Z,4.00
2018-06-17T02:53:34.897Z,0.00
2018-06-17T02:54:40.415Z,0.00
2018-06-17T02:55:45.929Z,4.00
2018-06-17T02:56:51.448Z,4.00
2018-06-17T02:57:57.973Z,4.00
2018-06-17T02:59:02.497Z,4.00
2018-06-17T03:00:07.975Z,4.00
2018-06-17T03:01:13.495Z,4.00
2018-06-17T03:02:19.009Z,4.00
2018-06-17T03:03:24.669Z,4.00
2018-06-17T03:04:31.060Z,4.00
2018-06-17T03:05:35.579Z,4.00
2018-06-17T03:06:41.065Z,4.00
2018-06-17T03:07:46.580Z,4.00
2018-06-17T03:08:52.106Z,4.00
2018-06-17T03:09:57.625Z,8.00
2018-06-17T03:11:04.152Z,8.00
2018-06-17T03:12:08.652Z,4.00
2018-06-17T03:13:14.171Z,12.00
2018-06-17T03:14:19.670Z,12.00
2018-06-17T03:15:25.211Z,12.00
2018-06-17T03:16:30.718Z,16.00
2018-06-17T03:17:37.257Z,16.00
2018-06-17T03:18:41.729Z,16.00
2018-06-17T03:19:47.250Z,16.00
2018-06-17T03:20:52.777Z,20.00
2018-06-17T03:21:58.317Z,20.00
2018-06-17T03:23:03.799Z,24.00
2018-06-17T03:24:10.320Z,24.00
2018-06-17T03:25:14.821Z,24.00
2018-06-17T03:26:20.386Z,28.00
2018-06-17T03:27:25.851Z,28.00
2018-06-17T03:28:31.384Z,32.00
2018-06-17T03:29:36.880Z,32.00
2018-06-17T03:30:43.427Z,32.00
2018-06-17T03:31:47.924Z,28.00
2018-06-17T03:32:53.435Z,32.00
2018-06-17T03:33:58.953Z,32.00
2018-06-17T03:35:04.456Z,32.00
2018-06-17T03:36:09.978Z,32.00
2018-06-17T03:37:16.515Z,32.00
2018-06-17T03:38:21.022Z,32.00
2018-06-17T03:39:26.525Z,36.00
2018-06-17T03:40:32.049Z,36.00
2018-06-17T03:41:37.552Z,40.00
2018-06-17T03:42:43.075Z,40.00
2018-06-17T03:43:49.599Z,48.00
2018-06-17T03:44:54.091Z,48.00
2018-06-17T03:45:59.620Z,48.00
2018-06-17T03:47:05.119Z,48.00
2018-06-17T03:48:10.649Z,48.00
2018-06-17T03:49:16.145Z,56.00
2018-06-17T03:50:22.697Z,56.00
2018-06-17T03:51:27.184Z,56.00
2018-06-17T03:52:32.700Z,52.00
2018-06-17T03:53:38.210Z,60.00
2018-06-17T03:54:43.724Z,64.00
2018-06-17T03:55:49.238Z,64.00
2018-06-17T03:56:55.756Z,64.00
2018-06-17T03:58:00.282Z,72.00
2018-06-17T03:59:05.776Z,72.00
2018-06-17T04:00:11.297Z,72.00
2018-06-17T04:01:16.824Z,80.00
2018-06-17T04:02:22.327Z,84.00
2018-06-17T04:03:28.864Z,76.00
2018-06-17T04:04:33.400Z,68.00
2018-06-17T04:05:38.868Z,68.00
2018-06-17T04:06:44.387Z,84.00
2018-06-17T04:07:49.894Z,92.00
2018-06-17T04:08:55.418Z,88.00
2018-06-17T04:10:01.946Z,100.00
2018-06-17T04:11:06.455Z,96.00
2018-06-17T04:12:11.966Z,100.00
2018-06-17T04:13:17.471Z,104.00
2018-06-17T04:14:22.992Z,120.00
2018-06-17T04:15:28.552Z,132.00
2018-06-17T04:16:35.026Z,136.00
2018-06-17T04:17:39.539Z,128.00
2018-06-17T04:18:45.045Z,132.00
2018-06-17T04:19:50.575Z,140.00
2018-06-17T04:20:56.088Z,140.00
2018-06-17T04:22:01.608Z,148.00
2018-06-17T04:23:08.119Z,152.00
2018-06-17T04:24:12.633Z,164.00
2018-06-17T04:25:18.181Z,160.00
2018-06-17T04:26:23.650Z,176.00
2018-06-17T04:27:29.179Z,168.00
2018-06-17T04:28:34.675Z,176.00
2018-06-17T04:29:41.207Z,176.00
2018-06-17T04:30:45.714Z,184.00
2018-06-17T04:31:51.221Z,192.00
2018-06-17T04:32:56.743Z,188.00
2018-06-17T04:34:02.256Z,184.00
2018-06-17T04:35:07.773Z,208.00
2018-06-17T04:36:14.296Z,212.00
2018-06-17T04:37:18.809Z,224.00
2018-06-17T04:38:24.312Z,216.00
2018-06-17T04:39:29.826Z,220.00
2018-06-17T04:40:35.347Z,228.00
2018-06-17T04:41:40.862Z,240.00
2018-06-17T04:42:47.388Z,244.00
2018-06-17T04:43:51.885Z,244.00
2018-06-17T04:44:57.416Z,268.00
2018-06-17T04:46:02.919Z,252.00
2018-06-17T04:47:08.435Z,228.00
2018-06-17T04:48:13.969Z,208.00
2018-06-17T04:49:20.480Z,228.00
2018-06-17T04:50:24.979Z,236.00
2018-06-17T04:51:30.502Z,240.00
2018-06-17T04:52:36.034Z,252.00
2018-06-17T04:53:41.522Z,264.00
2018-06-17T04:54:47.046Z,232.00
2018-06-17T04:55:53.613Z,252.00
2018-06-17T04:56:58.072Z,268.00
2018-06-17T04:58:03.630Z,252.00
2018-06-17T04:59:09.097Z,272.00
2018-06-17T05:00:14.623Z,268.00
2018-06-17T05:01:20.131Z,284.00
2018-06-17T05:02:26.663Z,284.00
2018-06-17T05:03:31.170Z,260.00
2018-06-17T05:04:36.748Z,264.00
2018-06-17T05:05:42.190Z,272.00
2018-06-17T05:06:47.706Z,260.00
2018-06-17T05:07:53.216Z,264.00
2018-06-17T05:08:59.750Z,316.00
2018-06-17T05:10:04.247Z,284.00
2018-06-17T05:11:09.767Z,284.00
2018-06-17T05:12:15.279Z,272.00
2018-06-17T05:13:20.793Z,260.00
2018-06-17T05:14:26.311Z,248.00
2018-06-17T05:15:32.839Z,296.00
2018-06-17T05:16:37.346Z,220.00
2018-06-17T05:17:42.855Z,252.00
2018-06-17T05:18:48.374Z,260.00
2018-06-17T05:19:53.885Z,328.00
2018-06-17T05:20:59.418Z,336.00
2018-06-17T05:22:05.920Z,340.00
2018-06-17T05:23:10.427Z,348.00
2018-06-17T05:24:15.970Z,360.00
2018-06-17T05:25:21.462Z,388.00
2018-06-17T05:26:26.983Z,456.00
2018-06-17T05:27:32.517Z,472.00
2018-06-17T05:28:39.025Z,444.00
2018-06-17T05:29:43.517Z,448.00
2018-06-17T05:30:49.042Z,452.00
2018-06-17T05:31:54.559Z,420.00
2018-06-17T05:33:00.078Z,376.00
2018-06-17T05:34:05.593Z,372.00
2018-06-17T05:35:12.107Z,396.00
2018-06-17T05:36:16.628Z,384.00
2018-06-17T05:37:22.139Z,400.00
2018-06-17T05:38:27.645Z,388.00
2018-06-17T05:39:33.169Z,380.00
2018-06-17T05:40:38.682Z,352.00
2018-06-17T05:41:45.215Z,324.00
2018-06-17T05:42:49.713Z,324.00
2018-06-17T05:43:55.243Z,336.00
2018-06-17T05:45:00.758Z,332.00
2018-06-17T05:46:06.247Z,316.00
2018-06-17T05:47:11.767Z,296.00
2018-06-17T05:48:18.305Z,296.00
2018-06-17T05:49:22.798Z,308.00
2018-06-17T05:50:28.311Z,308.00
2018-06-17T05:51:33.869Z,320.00
2018-06-17T05:52:39.351Z,328.00
2018-06-17T05:53:44.860Z,328.00
2018-06-17T05:54:51.396Z,332.00
2018-06-17T05:55:55.902Z,332.00
2018-06-17T05:57:01.401Z,336.00
2018-06-17T05:58:06.918Z,344.00
2018-06-17T05:59:12.440Z,356.00
2018-06-17T06:00:17.958Z,372.00
2018-06-17T06:01:24.477Z,388.00
2018-06-17T06:02:28.987Z,396.00
2018-06-17T06:03:35.078Z,388.00
2018-06-17T06:04:40.013Z,400.00
2018-06-17T06:05:45.531Z,452.00
2018-06-17T06:06:51.047Z,464.00
2018-06-17T06:07:57.576Z,464.00
2018-06-17T06:09:02.087Z,440.00
2018-06-17T06:10:07.593Z,440.00
2018-06-17T06:11:13.123Z,468.00
2018-06-17T06:12:18.751Z,492.00
2018-06-17T06:13:24.174Z,484.00
2018-06-17T06:14:30.673Z,476.00
2018-06-17T06:15:35.187Z,464.00
2018-06-17T06:16:40.696Z,448.00
2018-06-17T06:17:46.196Z,448.00
2018-06-17T06:18:51.721Z,452.00
2018-06-17T06:19:57.267Z,480.00
2018-06-17T06:21:04.494Z,460.00
2018-06-17T06:22:08.264Z,448.00
2018-06-17T06:23:13.786Z,436.00
2018-06-17T06:24:19.309Z,428.00
2018-06-17T06:25:24.895Z,416.00
2018-06-17T06:26:30.321Z,408.00
2018-06-17T06:27:36.848Z,420.00
2018-06-17T06:28:41.352Z,440.00
2018-06-17T06:29:46.876Z,448.00
2018-06-17T06:30:52.449Z,428.00
2018-06-17T06:31:57.926Z,412.00
2018-06-17T06:33:03.500Z,408.00
2018-06-17T06:34:09.955Z,408.00
2018-06-17T06:35:14.467Z,412.00
2018-06-17T06:36:19.962Z,416.00
2018-06-17T06:37:25.487Z,420.00
2018-06-17T06:38:31.016Z,424.00
2018-06-17T06:39:36.512Z,424.00
2018-06-17T06:40:43.057Z,432.00
2018-06-17T06:41:47.552Z,436.00
2018-06-17T06:42:53.074Z,448.00
2018-06-17T06:43:58.584Z,456.00
2018-06-17T06:45:04.120Z,472.00
2018-06-17T06:46:09.621Z,488.00
2018-06-17T06:47:16.136Z,504.00
2018-06-17T06:48:20.651Z,512.00
2018-06-17T06:49:26.160Z,512.00
2018-06-17T06:50:31.686Z,524.00
2018-06-17T06:51:37.197Z,532.00
2018-06-17T06:52:42.708Z,536.00
2018-06-17T06:53:49.249Z,548.00
2018-06-17T06:54:53.748Z,552.00
2018-06-17T06:55:59.266Z,560.00
2018-06-17T06:57:04.780Z,576.00
2018-06-17T06:58:10.288Z,584.00
2018-06-17T06:59:15.816Z,580.00
2018-06-17T07:00:22.333Z,592.00
2018-06-17T07:01:26.859Z,600.00
2018-06-17T07:02:32.351Z,616.00
2018-06-17T07:03:37.870Z,624.00
2018-06-17T07:04:43.400Z,632.00
2018-06-17T07:05:48.907Z,640.00
2018-06-17T07:06:55.447Z,644.00
2018-06-17T07:07:59.950Z,664.00
2018-06-17T07:09:05.467Z,660.00
2018-06-17T07:10:10.960Z,628.00
2018-06-17T07:11:16.478Z,652.00
2018-06-17T07:12:22.012Z,648.00
2018-06-17T07:13:28.534Z,628.00
2018-06-17T07:14:33.027Z,624.00
2018-06-17T07:15:38.558Z,628.00
2018-06-17T07:16:44.115Z,644.00
2018-06-17T07:17:49.573Z,696.00
2018-06-17T07:18:55.102Z,704.00
2018-06-17T07:20:01.621Z,752.00
2018-06-17T07:21:06.134Z,744.00
2018-06-17T07:22:11.647Z,788.00
2018-06-17T07:23:17.162Z,780.00
2018-06-17T07:24:22.669Z,852.00
2018-06-17T07:25:28.185Z,752.00
2018-06-17T07:26:34.716Z,756.00
2018-06-17T07:27:39.241Z,736.00
2018-06-17T07:28:44.733Z,760.00
2018-06-17T07:29:50.251Z,780.00
2018-06-17T07:30:55.807Z,772.00
2018-06-17T07:32:01.293Z,760.00
2018-06-17T07:33:07.808Z,724.00
2018-06-17T07:34:12.322Z,712.00
2018-06-17T07:35:17.840Z,732.00
2018-06-17T07:36:23.361Z,740.00
2018-06-17T07:37:28.872Z,740.00
2018-06-17T07:38:34.393Z,752.00
2018-06-17T07:39:40.937Z,804.00
2018-06-17T07:40:45.426Z,712.00
2018-06-17T07:41:50.937Z,680.00
2018-06-17T07:42:56.472Z,660.00
2018-06-17T07:44:01.974Z,668.00
2018-06-17T07:45:07.503Z,676.00
2018-06-17T07:46:14.025Z,660.00
2018-06-17T07:47:18.517Z,720.00
2018-06-17T07:48:24.079Z,756.00
2018-06-17T07:49:29.632Z,764.00
2018-06-17T07:50:35.073Z,716.00
2018-06-17T07:51:40.607Z,784.00
2018-06-17T07:52:47.117Z,960.00
2018-06-17T07:53:51.663Z,944.00
2018-06-17T07:54:57.141Z,1024.00
2018-06-17T07:56:02.754Z,952.00
2018-06-17T07:58:13.694Z,1000.00
2018-06-17T07:59:20.222Z,1048.00
2018-06-17T08:00:24.746Z,1012.00
2018-06-17T08:01:30.239Z,1036.00
2018-06-17T08:02:35.757Z,1112.00
2018-06-17T08:03:41.286Z,1024.00
2018-06-17T08:04:46.802Z,1108.00
2018-06-17T08:05:53.322Z,1064.00
2018-06-17T08:06:57.830Z,1136.00
2018-06-17T08:08:03.335Z,1132.00
2018-06-17T08:09:08.870Z,1128.00
2018-06-17T08:10:14.384Z,992.00
2018-06-17T08:11:19.894Z,1004.00
2018-06-17T08:12:26.416Z,824.00
2018-06-17T08:13:30.932Z,876.00
2018-06-17T08:14:36.450Z,980.00
2018-06-17T08:15:41.978Z,1000.00
2018-06-17T08:16:47.476Z,1052.00
2018-06-17T08:17:53.009Z,1060.00
2018-06-17T08:18:59.524Z,1012.00
2018-06-17T08:20:04.037Z,1096.00
2018-06-17T08:21:09.578Z,920.00
2018-06-17T08:22:15.084Z,888.00
2018-06-17T08:23:20.584Z,956.00
2018-06-17T08:24:26.093Z,980.00
2018-06-17T08:25:32.650Z,964.00
2018-06-17T08:26:37.138Z,884.00
2018-06-17T08:27:42.660Z,1084.00
2018-06-17T08:28:48.214Z,1036.00
2018-06-17T08:29:53.692Z,1124.00
2018-06-17T08:30:59.223Z,1080.00
2018-06-17T08:32:05.726Z,1040.00
2018-06-17T08:33:10.252Z,1012.00
2018-06-17T08:34:15.772Z,1012.00
2018-06-17T08:35:21.282Z,1068.00
2018-06-17T08:36:26.801Z,1048.00
2018-06-17T08:37:32.292Z,1044.00
2018-06-17T08:38:38.856Z,1100.00
2018-06-17T08:39:43.351Z,1108.00
2018-06-17T08:40:48.893Z,1148.00
2018-06-17T08:41:54.395Z,1212.00
2018-06-17T08:42:59.917Z,1212.00
2018-06-17T08:44:05.407Z,1216.00
2018-06-17T08:45:11.952Z,1192.00
2018-06-17T08:46:16.450Z,1240.00
2018-06-17T08:47:21.962Z,1096.00
2018-06-17T08:48:27.478Z,1152.00
2018-06-17T08:49:32.987Z,1144.00
2018-06-17T08:50:38.526Z,1140.00
2018-06-17T08:51:45.044Z,1320.00
2018-06-17T08:52:49.561Z,1160.00
2018-06-17T08:53:55.094Z,1348.00
2018-06-17T08:55:00.592Z,1312.00
2018-06-17T08:56:06.121Z,1244.00
2018-06-17T08:57:11.626Z,1148.00
2018-06-17T08:58:18.169Z,1136.00
2018-06-17T08:59:22.654Z,1196.00
2018-06-17T09:00:28.187Z,1244.00
2018-06-17T09:01:33.704Z,1076.00
2018-06-17T09:02:39.212Z,1100.00
2018-06-17T09:03:44.724Z,1032.00
2018-06-17T09:04:51.257Z,1228.00
2018-06-17T09:05:55.777Z,1220.00
2018-06-17T09:07:01.274Z,1320.00
2018-06-17T09:08:06.816Z,1324.00
2018-06-17T09:09:12.336Z,1332.00
2018-06-17T09:10:17.830Z,1248.00
2018-06-17T09:11:24.428Z,1300.00
2018-06-17T09:12:28.929Z,1296.00
2018-06-17T09:13:34.390Z,1156.00
2018-06-17T09:14:39.904Z,1148.00
2018-06-17T09:15:45.432Z,1096.00
2018-06-17T09:16:50.934Z,1088.00
2018-06-17T09:17:57.508Z,1068.00
2018-06-17T09:19:01.975Z,1120.00
2018-06-17T09:20:07.507Z,1272.00
2018-06-17T09:21:13.033Z,1220.00
2018-06-17T09:22:18.527Z,1308.00
2018-06-17T09:23:24.073Z,1340.00
2018-06-17T09:24:30.598Z,1312.00
2018-06-17T09:25:35.082Z,1264.00
2018-06-17T09:26:40.613Z,1280.00
2018-06-17T09:27:46.119Z,1312.00
2018-06-17T09:28:51.648Z,1380.00
2018-06-17T09:29:57.196Z,1364.00
2018-06-17T09:31:03.670Z,1292.00
2018-06-17T09:32:08.327Z,1240.00
2018-06-17T09:33:13.723Z,1320.00
2018-06-17T09:34:19.217Z,1344.00
2018-06-17T09:35:24.744Z,1332.00
2018-06-17T09:36:30.260Z,1512.00
2018-06-17T09:37:36.783Z,1564.00
2018-06-17T09:38:41.280Z,1360.00
2018-06-17T09:39:46.813Z,1432.00
2018-06-17T09:40:52.329Z,1356.00
2018-06-17T09:41:57.862Z,1384.00
2018-06-17T09:43:03.354Z,1436.00
2018-06-17T09:44:09.909Z,1432.00
2018-06-17T09:45:14.405Z,1464.00
2018-06-17T09:46:19.930Z,1476.00
2018-06-17T09:47:25.447Z,1476.00
2018-06-17T09:48:30.950Z,1504.00
2018-06-17T09:49:36.479Z,1508.00
2018-06-17T09:50:42.988Z,1516.00
2018-06-17T09:51:47.507Z,1508.00
2018-06-17T09:52:53.036Z,1488.00
2018-06-17T09:53:58.529Z,1452.00
2018-06-17T09:55:04.069Z,1504.00
2018-06-17T09:56:09.614Z,1456.00
2018-06-17T09:57:16.114Z,1440.00
2018-06-17T09:58:20.622Z,1436.00
2018-06-17T09:59:26.165Z,1364.00
2018-06-17T10:00:31.665Z,1316.00
2018-06-17T10:01:37.233Z,1288.00
2018-06-17T10:02:42.693Z,1320.00
2018-06-17T10:03:49.222Z,1372.00
2018-06-17T10:04:53.735Z,1284.00
2018-06-17T10:05:59.247Z,1252.00
2018-06-17T10:07:04.771Z,1224.00
2018-06-17T10:08:10.295Z,1300.00
2018-06-17T10:09:15.804Z,1360.00
2018-06-17T10:10:22.349Z,1352.00
2018-06-17T10:11:26.881Z,1468.00
2018-06-17T10:12:32.389Z,1564.00
2018-06-17T10:13:37.869Z,1224.00
2018-06-17T10:14:43.397Z,1476.00
2018-06-17T10:15:48.944Z,1604.00
2018-06-17T10:16:55.478Z,1436.00
2018-06-17T10:17:59.946Z,1128.00
2018-06-17T10:19:05.464Z,1060.00
2018-06-17T10:20:10.981Z,1000.00
2018-06-17T10:21:16.552Z,732.00
2018-06-17T10:22:22.039Z,912.00
2018-06-17T10:23:28.536Z,1072.00
2018-06-17T10:24:33.033Z,1072.00
2018-06-17T10:25:38.600Z,1176.00
2018-06-17T10:26:44.084Z,1108.00
2018-06-17T10:27:49.599Z,1048.00
2018-06-17T10:28:55.121Z,1052.00
2018-06-17T10:30:01.671Z,868.00
2018-06-17T10:31:06.149Z,968.00
2018-06-17T10:32:11.727Z,1032.00
2018-06-17T10:33:17.202Z,1108.00
2018-06-17T10:34:22.718Z,936.00
2018-06-17T10:35:28.256Z,884.00
2018-06-17T10:36:34.758Z,736.00
2018-06-17T10:37:39.270Z,908.00
2018-06-17T10:38:44.799Z,1084.00
2018-06-17T10:39:50.363Z,1104.00
2018-06-17T10:40:55.833Z,916.00
2018-06-17T10:42:01.347Z,856.00
2018-06-17T10:43:07.882Z,828.00
2018-06-17T10:44:12.380Z,892.00
2018-06-17T10:45:17.911Z,820.00
2018-06-17T10:46:23.435Z,1220.00
2018-06-17T10:47:28.944Z,1476.00
2018-06-17T10:48:34.454Z,1612.00
2018-06-17T10:49:40.991Z,1652.00
2018-06-17T10:50:45.533Z,1628.00
2018-06-17T10:51:50.997Z,1392.00
2018-06-17T10:52:56.541Z,1196.00
2018-06-17T10:54:02.116Z,1500.00
2018-06-17T10:55:07.555Z,1676.00
2018-06-17T10:56:14.153Z,1596.00
2018-06-17T10:57:18.588Z,1504.00
2018-06-17T10:58:24.136Z,1208.00
2018-06-17T10:59:29.637Z,1148.00
2018-06-17T11:00:35.135Z,1124.00
2018-06-17T11:01:40.664Z,1004.00
2018-06-17T11:02:47.415Z,1032.00
2018-06-17T11:03:51.719Z,832.00
2018-06-17T11:04:57.309Z,1136.00
2018-06-17T11:06:02.769Z,1120.00
2018-06-17T11:07:08.247Z,1064.00
2018-06-17T11:08:13.779Z,880.00
2018-06-17T11:09:20.302Z,708.00
2018-06-17T11:10:24.804Z,796.00
2018-06-17T11:11:30.311Z,864.00
2018-06-17T11:12:35.839Z,1112.00
2018-06-17T11:13:41.375Z,1180.00
2018-06-17T11:14:46.896Z,1152.00
2018-06-17T11:15:53.547Z,952.00
2018-06-17T11:16:57.936Z,1024.00
2018-06-17T11:18:03.419Z,964.00
2018-06-17T11:19:08.957Z,964.00
2018-06-17T11:20:14.480Z,852.00
2018-06-17T11:21:20.005Z,920.00
2018-06-17T11:22:26.566Z,916.00
2018-06-17T11:23:31.037Z,1052.00
2018-06-17T11:24:36.537Z,1272.00
2018-06-17T11:25:42.089Z,1220.00
2018-06-17T11:26:47.631Z,1216.00
2018-06-17T11:27:53.148Z,1304.00
2018-06-17T11:28:59.645Z,1304.00
2018-06-17T11:30:04.151Z,1280.00
2018-06-17T11:31:09.685Z,1176.00
2018-06-17T11:32:15.166Z,1288.00
2018-06-17T11:33:20.723Z,1388.00
2018-06-17T11:34:26.210Z,1348.00
2018-06-17T11:35:32.801Z,1380.00
2018-06-17T11:36:37.261Z,1268.00
2018-06-17T11:37:42.788Z,1292.00
2018-06-17T11:38:48.368Z,1172.00
2018-06-17T11:39:53.778Z,1108.00
2018-06-17T11:40:59.339Z,952.00
2018-06-17T11:42:05.826Z,984.00
2018-06-17T11:43:10.366Z,1008.00
2018-06-17T11:44:15.892Z,1132.00
2018-06-17T11:45:21.381Z,1228.00
2018-06-17T11:46:26.973Z,1324.00
2018-06-17T11:47:32.433Z,1308.00
2018-06-17T11:48:38.944Z,1232.00
2018-06-17T11:49:43.488Z,1284.00
2018-06-17T11:50:48.988Z,1252.00
2018-06-17T11:51:54.502Z,1000.00
2018-06-17T11:53:00.047Z,1068.00
2018-06-17T11:54:05.702Z,1048.00
2018-06-17T11:55:12.134Z,988.00
2018-06-17T11:56:16.644Z,1012.00
2018-06-17T11:57:22.143Z,1004.00
2018-06-17T11:58:27.609Z,1024.00
2018-06-17T11:59:33.156Z,1144.00
2018-06-17T12:00:38.679Z,980.00
2018-06-17T12:01:45.202Z,960.00
2018-06-17T12:02:50.235Z,1004.00
2018-06-17T12:03:57.006Z,1036.00
2018-06-17T12:05:02.307Z,888.00
2018-06-17T12:06:06.505Z,932.00
2018-06-17T12:07:14.695Z,928.00
2018-06-17T12:08:20.074Z,724.00
2018-06-17T12:09:22.792Z,696.00
2018-06-17T12:10:28.344Z,664.00
2018-06-17T12:11:33.844Z,588.00
2018-06-17T12:12:42.878Z,552.00
2018-06-17T12:13:44.857Z,576.00
2018-06-17T12:14:53.757Z,616.00
2018-06-17T12:15:55.906Z,604.00
2018-06-17T12:17:02.285Z,700.00
2018-06-17T12:18:07.098Z,908.00
2018-06-17T12:19:12.439Z,1036.00
2018-06-17T12:20:17.954Z,888.00
2018-06-17T12:21:24.561Z,848.00
2018-06-17T12:22:29.035Z,1012.00
2018-06-17T12:23:34.533Z,1128.00
2018-06-17T12:24:40.798Z,1052.00
2018-06-17T12:25:45.560Z,984.00
2018-06-17T12:26:51.070Z,892.00
2018-06-17T12:27:57.608Z,924.00
2018-06-17T12:29:02.106Z,968.00
2018-06-17T12:30:07.646Z,980.00
2018-06-17T12:31:13.176Z,936.00
2018-06-17T12:32:18.671Z,944.00
2018-06-17T12:33:24.198Z,932.00
2018-06-17T12:34:30.748Z,888.00
2018-06-17T12:35:35.245Z,904.00
2018-06-17T12:36:41.254Z,856.00
2018-06-17T12:37:46.262Z,824.00
2018-06-17T12:38:51.779Z,792.00
2018-06-17T12:39:58.265Z,760.00
2018-06-17T12:41:03.824Z,744.00
2018-06-17T12:42:08.506Z,736.00
2018-06-17T12:43:14.793Z,728.00
2018-06-17T12:44:19.377Z,720.00
2018-06-17T12:45:24.871Z,728.00
2018-06-17T12:46:31.054Z,740.00
2018-06-17T12:47:36.951Z,760.00
2018-06-17T12:48:41.437Z,628.00
2018-06-17T12:49:46.963Z,772.00
2018-06-17T12:50:52.461Z,808.00
2018-06-17T12:51:58.712Z,808.00
2018-06-17T12:53:03.520Z,800.00
2018-06-17T12:54:10.051Z,816.00
2018-06-17T12:55:14.538Z,844.00
2018-06-17T12:56:20.056Z,876.00
2018-06-17T12:57:25.575Z,960.00
2018-06-17T12:58:31.111Z,1064.00
2018-06-17T12:59:36.599Z,1152.00
2018-06-17T13:00:43.167Z,1232.00
2018-06-17T13:01:48.296Z,1336.00
2018-06-17T13:02:53.162Z,1472.00
2018-06-17T13:03:58.678Z,1568.00
2018-06-17T13:05:04.209Z,1632.00
2018-06-17T13:06:09.736Z,1692.00
2018-06-17T13:07:16.253Z,1744.00
2018-06-17T13:08:20.734Z,1756.00
2018-06-17T13:09:26.864Z,1732.00
2018-06-17T13:10:32.387Z,1712.00
2018-06-17T13:11:37.288Z,1632.00
2018-06-17T13:12:43.137Z,1700.00
2018-06-17T13:13:49.364Z,1696.00
2018-06-17T13:14:53.856Z,1644.00
2018-06-17T13:15:59.777Z,1432.00
2018-06-17T13:17:04.891Z,1484.00
2018-06-17T13:18:10.404Z,1436.00
2018-06-17T13:19:19.553Z,1216.00
2018-06-17T13:20:22.452Z,1236.00
2018-06-17T13:21:27.748Z,1308.00
2018-06-17T13:22:32.587Z,1288.00
2018-06-17T13:23:38.024Z,1456.00
2018-06-17T13:24:44.319Z,1472.00
2018-06-17T13:25:49.051Z,1568.00
2018-06-17T13:26:55.556Z,1632.00
2018-06-17T13:28:00.106Z,1596.00
2018-06-17T13:29:06.335Z,1520.00
2018-06-17T13:30:11.779Z,1456.00
2018-06-17T13:31:16.660Z,1312.00
2018-06-17T13:32:22.178Z,1344.00
2018-06-17T13:33:30.244Z,1332.00
2018-06-17T13:34:33.194Z,1292.00
2018-06-17T13:35:38.698Z,1348.00
2018-06-17T13:36:44.818Z,1468.00
2018-06-17T13:37:49.722Z,1520.00
2018-06-17T13:38:55.289Z,1488.00
2018-06-17T13:40:01.792Z,1428.00
2018-06-17T13:41:06.291Z,1408.00
2018-06-17T13:42:11.816Z,1404.00
2018-06-17T13:43:17.325Z,1412.00
2018-06-17T13:44:23.322Z,1420.00